sensor_id;sensor_type;location;lat;lon;timestamp;pressure;altitude;pressure_sealevel;temperature;humidity
596;BME280;19946;49.306;11.350;2023-09-30T00:01:49;97047.97;;;14.19;100.00
596;BME280;19946;49.306;11.350;2023-09-30T00:04:49;97083.22;;;14.42;100.00
596;BME280;19946;49.306;11.350;2023-09-30T00:07:50;97100.09;;;14.57;100.00
596;BME280;19946;49.306;11.350;2023-09-30T00:10:50;97077.03;;;14.53;100.00
596;BME280;19946;49.306;11.350;2023-09-30T00:13:53;97099.53;;;14.64;100.00
596;BME280;19946;49.306;11.350;2023-09-30T00:16:53;97110.63;;;14.75;100.00
596;BME280;19946;49.306;11.350;2023-09-30T00:19:54;97100.44;;;14.82;100.00
596;BME280;19946;49.306;11.350;2023-09-30T00:22:54;97098.09;;;14.98;100.00
596;BME280;19946;49.306;11.350;2023-09-30T00:25:54;97084.66;;;15.03;100.00
596;BME280;19946;49.306;11.350;2023-09-30T00:28:56;97083.34;;;15.16;100.00
596;BME280;19946;49.306;11.350;2023-09-30T00:31:56;97050.00;;;15.10;100.00
596;BME280;19946;49.306;11.350;2023-09-30T00:34:56;97092.03;;;15.44;100.00
596;BME280;19946;49.306;11.350;2023-09-30T00:37:57;97078.16;;;15.44;100.00
596;BME280;19946;49.306;11.350;2023-09-30T00:40:57;97103.59;;;15.69;100.00
596;BME280;19946;49.306;11.350;2023-09-30T00:43:57;97095.63;;;15.70;100.00
596;BME280;19946;49.306;11.350;2023-09-30T00:46:58;97095.63;;;15.70;100.00
596;BME280;19946;49.306;11.350;2023-09-30T00:50:00;97089.06;;;15.66;100.00
596;BME280;19946;49.306;11.350;2023-09-30T00:53:00;97086.69;;;15.46;100.00
596;BME280;19946;49.306;11.350;2023-09-30T00:56:00;97069.69;;;15.32;100.00
596;BME280;19946;49.306;11.350;2023-09-30T00:59:01;97083.44;;;15.34;100.00
596;BME280;19946;49.306;11.350;2023-09-30T01:02:02;97101.53;;;15.73;100.00
596;BME280;19946;49.306;11.350;2023-09-30T01:05:05;97066.59;;;15.56;100.00
596;BME280;19946;49.306;11.350;2023-09-30T01:08:07;97088.28;;;15.47;100.00
596;BME280;19946;49.306;11.350;2023-09-30T01:11:08;97066.63;;;15.37;100.00
596;BME280;19946;49.306;11.350;2023-09-30T01:14:27;97090.88;;;15.66;100.00
596;BME280;19946;49.306;11.350;2023-09-30T01:17:29;97102.84;;;15.59;100.00
596;BME280;19946;49.306;11.350;2023-09-30T01:20:29;97095.69;;;15.61;100.00
596;BME280;19946;49.306;11.350;2023-09-30T01:23:34;97096.28;;;15.55;100.00
596;BME280;19946;49.306;11.350;2023-09-30T01:26:35;97064.81;;;15.19;100.00
596;BME280;19946;49.306;11.350;2023-09-30T01:29:35;97092.31;;;15.41;100.00
596;BME280;19946;49.306;11.350;2023-09-30T01:32:38;97098.69;;;15.66;100.00
596;BME280;19946;49.306;11.350;2023-09-30T01:35:38;97090.88;;;15.66;100.00
596;BME280;19946;49.306;11.350;2023-09-30T01:38:39;97097.63;;;15.59;100.00
596;BME280;19946;49.306;11.350;2023-09-30T01:41:40;97076.13;;;15.38;100.00
596;BME280;19946;49.306;11.350;2023-09-30T01:44:41;97103.41;;;15.53;100.00
596;BME280;19946;49.306;11.350;2023-09-30T01:47:41;97095.97;;;15.58;100.00
596;BME280;19946;49.306;11.350;2023-09-30T01:50:41;97088.81;;;15.60;100.00
596;BME280;19946;49.306;11.350;2023-09-30T01:53:42;97088.75;;;15.69;100.00
596;BME280;19946;49.306;11.350;2023-09-30T01:56:43;97097.34;;;15.80;100.00
596;BME280;19946;49.306;11.350;2023-09-30T01:59:43;97095.06;;;15.77;100.00
596;BME280;19946;49.306;11.350;2023-09-30T02:02:43;97095.75;;;15.96;100.00
596;BME280;19946;49.306;11.350;2023-09-30T02:05:44;97094.59;;;15.81;100.00
596;BME280;19946;49.306;11.350;2023-09-30T02:08:44;97085.81;;;15.82;100.00
596;BME280;19946;49.306;11.350;2023-09-30T02:11:46;97100.03;;;15.70;100.00
596;BME280;19946;49.306;11.350;2023-09-30T02:14:46;97089.78;;;15.59;100.00
596;BME280;19946;49.306;11.350;2023-09-30T02:17:47;97102.13;;;15.66;100.00
596;BME280;19946;49.306;11.350;2023-09-30T02:20:48;97099.06;;;15.71;100.00
596;BME280;19946;49.306;11.350;2023-09-30T02:23:50;97080.72;;;15.53;100.00
596;BME280;19946;49.306;11.350;2023-09-30T02:26:55;97102.00;;;15.68;100.00
596;BME280;19946;49.306;11.350;2023-09-30T02:29:56;97056.94;;;15.29;100.00
596;BME280;19946;49.306;11.350;2023-09-30T02:32:57;97096.78;;;15.58;100.00
596;BME280;19946;49.306;11.350;2023-09-30T02:35:57;97087.09;;;15.41;100.00
596;BME280;19946;49.306;11.350;2023-09-30T02:38:57;97048.75;;;15.14;100.00
596;BME280;19946;49.306;11.350;2023-09-30T02:41:58;97096.56;;;15.42;100.00
596;BME280;19946;49.306;11.350;2023-09-30T02:45:02;97086.31;;;15.68;100.00
596;BME280;19946;49.306;11.350;2023-09-30T02:48:03;97032.25;;;15.23;100.00
596;BME280;19946;49.306;11.350;2023-09-30T02:51:03;97085.84;;;15.55;100.00
596;BME280;19946;49.306;11.350;2023-09-30T02:54:04;97085.94;;;15.63;100.00
596;BME280;19946;49.306;11.350;2023-09-30T02:57:05;97084.06;;;15.55;100.00
596;BME280;19946;49.306;11.350;2023-09-30T03:00:06;97106.59;;;15.56;100.00
596;BME280;19946;49.306;11.350;2023-09-30T03:03:26;97104.50;;;15.50;100.00
596;BME280;19946;49.306;11.350;2023-09-30T03:06:26;97079.88;;;15.25;100.00
596;BME280;19946;49.306;11.350;2023-09-30T03:09:26;97112.34;;;15.50;100.00
596;BME280;19946;49.306;11.350;2023-09-30T03:12:26;97115.56;;;15.34;100.00
596;BME280;19946;49.306;11.350;2023-09-30T03:15:27;97095.44;;;15.17;100.00
596;BME280;19946;49.306;11.350;2023-09-30T03:18:28;97104.66;;;15.12;100.00
596;BME280;19946;49.306;11.350;2023-09-30T03:21:31;97103.13;;;15.19;100.00
596;BME280;19946;49.306;11.350;2023-09-30T03:24:31;97069.56;;;14.87;100.00
596;BME280;19946;49.306;11.350;2023-09-30T03:27:33;97099.56;;;15.10;100.00
596;BME280;19946;49.306;11.350;2023-09-30T03:30:33;97117.16;;;15.08;100.00
596;BME280;19946;49.306;11.350;2023-09-30T03:33:34;97103.41;;;15.06;100.00
596;BME280;19946;49.306;11.350;2023-09-30T03:36:35;97111.72;;;14.92;100.00
596;BME280;19946;49.306;11.350;2023-09-30T03:39:35;97109.53;;;14.78;100.00
596;BME280;19946;49.306;11.350;2023-09-30T03:42:36;97104.59;;;14.75;100.00
596;BME280;19946;49.306;11.350;2023-09-30T03:45:36;97113.91;;;14.87;100.00
596;BME280;19946;49.306;11.350;2023-09-30T03:48:39;97118.97;;;14.88;100.00
596;BME280;19946;49.306;11.350;2023-09-30T03:51:40;97074.84;;;14.68;100.00
596;BME280;19946;49.306;11.350;2023-09-30T03:54:41;97081.44;;;14.52;100.00
596;BME280;19946;49.306;11.350;2023-09-30T03:57:41;97118.88;;;14.71;100.00
596;BME280;19946;49.306;11.350;2023-09-30T04:00:42;97108.56;;;14.79;100.00
596;BME280;19946;49.306;11.350;2023-09-30T04:03:42;97119.69;;;14.71;100.00
596;BME280;19946;49.306;11.350;2023-09-30T04:06:43;97113.81;;;14.69;100.00
596;BME280;19946;49.306;11.350;2023-09-30T04:09:43;97116.13;;;14.63;100.00
596;BME280;19946;49.306;11.350;2023-09-30T04:12:44;97098.44;;;14.28;100.00
596;BME280;19946;49.306;11.350;2023-09-30T04:15:44;97131.09;;;14.41;100.00
596;BME280;19946;49.306;11.350;2023-09-30T04:18:45;97122.69;;;14.28;100.00
596;BME280;19946;49.306;11.350;2023-09-30T04:21:46;97122.00;;;14.36;100.00
596;BME280;19946;49.306;11.350;2023-09-30T04:24:47;97076.34;;;14.03;100.00
596;BME280;19946;49.306;11.350;2023-09-30T04:27:49;97086.06;;;14.10;100.00
596;BME280;19946;49.306;11.350;2023-09-30T04:30:50;97135.09;;;13.96;100.00
596;BME280;19946;49.306;11.350;2023-09-30T04:33:51;97112.03;;;13.62;100.00
596;BME280;19946;49.306;11.350;2023-09-30T04:36:51;97141.19;;;13.66;100.00
596;BME280;19946;49.306;11.350;2023-09-30T04:39:52;97122.91;;;13.46;100.00
596;BME280;19946;49.306;11.350;2023-09-30T04:42:53;97139.50;;;13.55;100.00
596;BME280;19946;49.306;11.350;2023-09-30T04:45:58;97150.75;;;13.56;100.00
596;BME280;19946;49.306;11.350;2023-09-30T04:48:59;97156.50;;;13.49;100.00
596;BME280;19946;49.306;11.350;2023-09-30T04:51:59;97155.78;;;13.47;100.00
596;BME280;19946;49.306;11.350;2023-09-30T04:55:00;97158.69;;;13.54;100.00
596;BME280;19946;49.306;11.350;2023-09-30T04:58:01;97142.69;;;13.28;100.00
596;BME280;19946;49.306;11.350;2023-09-30T05:01:02;97167.75;;;13.29;100.00
596;BME280;19946;49.306;11.350;2023-09-30T05:04:02;97174.53;;;13.21;100.00
596;BME280;19946;49.306;11.350;2023-09-30T05:07:02;97172.22;;;13.18;100.00
596;BME280;19946;49.306;11.350;2023-09-30T05:10:04;97179.06;;;13.19;100.00
596;BME280;19946;49.306;11.350;2023-09-30T05:13:10;97147.25;;;12.94;100.00
596;BME280;19946;49.306;11.350;2023-09-30T05:16:11;97180.34;;;12.92;100.00
596;BME280;19946;49.306;11.350;2023-09-30T05:19:13;97166.72;;;12.79;100.00
596;BME280;19946;49.306;11.350;2023-09-30T05:22:13;97188.28;;;12.91;100.00
596;BME280;19946;49.306;11.350;2023-09-30T05:25:14;97192.16;;;12.96;100.00
596;BME280;19946;49.306;11.350;2023-09-30T05:28:20;97186.56;;;12.80;100.00
596;BME280;19946;49.306;11.350;2023-09-30T05:31:21;97215.84;;;12.82;100.00
596;BME280;19946;49.306;11.350;2023-09-30T05:34:21;97202.16;;;12.80;100.00
596;BME280;19946;49.306;11.350;2023-09-30T05:37:21;97198.91;;;12.67;100.00
596;BME280;19946;49.306;11.350;2023-09-30T05:40:22;97215.03;;;12.82;100.00
596;BME280;19946;49.306;11.350;2023-09-30T05:43:24;97210.91;;;12.79;100.00
596;BME280;19946;49.306;11.350;2023-09-30T05:46:25;97220.09;;;12.83;100.00
596;BME280;19946;49.306;11.350;2023-09-30T05:49:27;97216.84;;;12.70;100.00
596;BME280;19946;49.306;11.350;2023-09-30T05:52:27;97165.41;;;12.32;100.00
596;BME280;19946;49.306;11.350;2023-09-30T05:55:28;97243.69;;;12.59;100.00
596;BME280;19946;49.306;11.350;2023-09-30T05:58:29;97241.22;;;12.58;100.00
596;BME280;19946;49.306;11.350;2023-09-30T06:01:29;97245.84;;;12.54;100.00
596;BME280;19946;49.306;11.350;2023-09-30T06:04:30;97238.41;;;12.50;100.00
596;BME280;19946;49.306;11.350;2023-09-30T06:07:30;97242.19;;;12.46;100.00
596;BME280;19946;49.306;11.350;2023-09-30T06:10:31;97253.28;;;12.48;100.00
596;BME280;19946;49.306;11.350;2023-09-30T06:13:32;97221.72;;;12.20;100.00
596;BME280;19946;49.306;11.350;2023-09-30T06:16:33;97263.50;;;12.28;100.00
596;BME280;19946;49.306;11.350;2023-09-30T06:19:34;97245.34;;;12.06;100.00
596;BME280;19946;49.306;11.350;2023-09-30T06:22:35;97261.94;;;12.26;100.00
596;BME280;19946;49.306;11.350;2023-09-30T06:25:35;97261.22;;;12.35;100.00
596;BME280;19946;49.306;11.350;2023-09-30T06:28:36;97249.78;;;12.26;100.00
596;BME280;19946;49.306;11.350;2023-09-30T06:31:41;97267.94;;;12.37;100.00
596;BME280;19946;49.306;11.350;2023-09-30T06:34:41;97253.34;;;12.25;100.00
596;BME280;19946;49.306;11.350;2023-09-30T06:37:42;97288.97;;;12.34;100.00
596;BME280;19946;49.306;11.350;2023-09-30T06:40:43;97301.00;;;12.35;100.00
596;BME280;19946;49.306;11.350;2023-09-30T06:43:43;97297.13;;;12.41;100.00
596;BME280;19946;49.306;11.350;2023-09-30T06:46:44;97305.72;;;12.41;100.00
596;BME280;19946;49.306;11.350;2023-09-30T06:49:44;97309.41;;;12.39;100.00
596;BME280;19946;49.306;11.350;2023-09-30T06:52:46;97307.75;;;12.38;100.00
596;BME280;19946;49.306;11.350;2023-09-30T06:55:49;97309.72;;;12.46;100.00
596;BME280;19946;49.306;11.350;2023-09-30T06:58:51;97308.44;;;12.40;100.00
596;BME280;19946;49.306;11.350;2023-09-30T07:01:51;97320.13;;;12.46;100.00
596;BME280;19946;49.306;11.350;2023-09-30T07:04:52;97318.59;;;12.54;100.00
596;BME280;19946;49.306;11.350;2023-09-30T07:07:53;97328.50;;;12.49;100.00
596;BME280;19946;49.306;11.350;2023-09-30T07:10:53;97335.34;;;12.50;100.00
596;BME280;19946;49.306;11.350;2023-09-30T07:13:53;97334.41;;;12.62;100.00
596;BME280;19946;49.306;11.350;2023-09-30T07:16:54;97313.25;;;12.56;100.00
596;BME280;19946;49.306;11.350;2023-09-30T07:19:54;97334.00;;;12.67;100.00
596;BME280;19946;49.306;11.350;2023-09-30T07:22:54;97336.94;;;12.85;100.00
596;BME280;19946;49.306;11.350;2023-09-30T07:25:55;97312.59;;;12.86;100.00
596;BME280;19946;49.306;11.350;2023-09-30T07:28:55;97336.00;;;12.86;100.00
596;BME280;19946;49.306;11.350;2023-09-30T07:31:56;97333.53;;;12.84;100.00
596;BME280;19946;49.306;11.350;2023-09-30T07:34:57;97345.34;;;12.77;100.00
596;BME280;19946;49.306;11.350;2023-09-30T07:37:57;97348.28;;;12.84;100.00
596;BME280;19946;49.306;11.350;2023-09-30T07:41:00;97353.56;;;12.93;100.00
596;BME280;19946;49.306;11.350;2023-09-30T07:44:00;97356.63;;;12.98;100.00
596;BME280;19946;49.306;11.350;2023-09-30T07:47:00;97350.44;;;13.10;100.00
596;BME280;19946;49.306;11.350;2023-09-30T07:50:02;97361.78;;;13.09;100.00
596;BME280;19946;49.306;11.350;2023-09-30T07:53:06;97357.91;;;13.15;100.00
596;BME280;19946;49.306;11.350;2023-09-30T07:56:06;97362.19;;;13.16;100.00
596;BME280;19946;49.306;11.350;2023-09-30T07:59:07;97363.19;;;13.25;100.00
596;BME280;19946;49.306;11.350;2023-09-30T08:02:07;97346.44;;;13.18;100.00
596;BME280;19946;49.306;11.350;2023-09-30T08:05:09;97377.00;;;13.36;100.00
596;BME280;19946;49.306;11.350;2023-09-30T08:08:10;97364.09;;;13.35;100.00
596;BME280;19946;49.306;11.350;2023-09-30T08:11:11;97363.88;;;13.38;100.00
596;BME280;19946;49.306;11.350;2023-09-30T08:14:12;97367.31;;;13.59;100.00
596;BME280;19946;49.306;11.350;2023-09-30T08:17:13;97376.13;;;13.68;100.00
596;BME280;19946;49.306;11.350;2023-09-30T08:20:13;97369.97;;;13.69;100.00
596;BME280;19946;49.306;11.350;2023-09-30T08:23:13;97366.59;;;13.78;100.00
596;BME280;19946;49.306;11.350;2023-09-30T08:26:14;97374.94;;;13.93;100.00
596;BME280;19946;49.306;11.350;2023-09-30T08:29:14;97375.72;;;13.83;100.00
596;BME280;19946;49.306;11.350;2023-09-30T08:32:14;97379.69;;;13.87;100.00
596;BME280;19946;49.306;11.350;2023-09-30T08:35:15;97379.81;;;13.65;100.00
596;BME280;19946;49.306;11.350;2023-09-30T08:38:15;97369.09;;;13.79;100.00
596;BME280;19946;49.306;11.350;2023-09-30T08:41:32;97380.78;;;14.06;100.00
596;BME280;19946;49.306;11.350;2023-09-30T08:44:33;97368.13;;;14.01;100.00
596;BME280;19946;49.306;11.350;2023-09-30T08:47:33;97374.78;;;14.15;100.00
596;BME280;19946;49.306;11.350;2023-09-30T08:50:35;97378.19;;;14.36;100.00
596;BME280;19946;49.306;11.350;2023-09-30T08:53:39;97381.38;;;14.49;100.00
596;BME280;19946;49.306;11.350;2023-09-30T08:56:40;97389.50;;;14.46;100.00
596;BME280;19946;49.306;11.350;2023-09-30T08:59:43;97381.75;;;14.66;100.00
596;BME280;19946;49.306;11.350;2023-09-30T09:02:44;97362.38;;;14.58;100.00
596;BME280;19946;49.306;11.350;2023-09-30T09:05:44;97327.22;;;14.43;100.00
596;BME280;19946;49.306;11.350;2023-09-30T09:08:44;97363.28;;;14.88;100.00
596;BME280;19946;49.306;11.350;2023-09-30T09:11:45;97355.69;;;14.75;100.00
596;BME280;19946;49.306;11.350;2023-09-30T09:14:46;97338.47;;;14.53;100.00
596;BME280;19946;49.306;11.350;2023-09-30T09:17:47;97370.25;;;14.78;100.00
596;BME280;19946;49.306;11.350;2023-09-30T09:20:47;97374.91;;;14.74;100.00
596;BME280;19946;49.306;11.350;2023-09-30T09:23:50;97352.97;;;14.77;100.00
596;BME280;19946;49.306;11.350;2023-09-30T09:26:50;97326.31;;;14.73;100.00
596;BME280;19946;49.306;11.350;2023-09-30T09:29:50;97359.34;;;15.03;100.00
596;BME280;19946;49.306;11.350;2023-09-30T09:32:57;97365.53;;;15.31;100.00
596;BME280;19946;49.306;11.350;2023-09-30T09:35:58;97364.44;;;15.33;100.00
596;BME280;19946;49.306;11.350;2023-09-30T09:38:58;97367.31;;;15.50;100.00
596;BME280;19946;49.306;11.350;2023-09-30T09:41:59;97349.47;;;15.36;100.00
596;BME280;19946;49.306;11.350;2023-09-30T09:45:05;97342.19;;;15.29;100.00
596;BME280;19946;49.306;11.350;2023-09-30T09:48:06;97357.28;;;15.26;100.00
596;BME280;19946;49.306;11.350;2023-09-30T09:51:08;97364.97;;;15.37;100.00
596;BME280;19946;49.306;11.350;2023-09-30T09:54:11;97361.00;;;15.33;100.00
596;BME280;19946;49.306;11.350;2023-09-30T09:57:12;97368.53;;;15.26;100.00
596;BME280;19946;49.306;11.350;2023-09-30T10:00:18;97364.84;;;15.39;100.00
596;BME280;19946;49.306;11.350;2023-09-30T10:03:19;97366.22;;;15.62;100.00
596;BME280;19946;49.306;11.350;2023-09-30T10:06:21;97349.28;;;15.95;100.00
596;BME280;19946;49.306;11.350;2023-09-30T10:09:23;97333.91;;;15.82;100.00
596;BME280;19946;49.306;11.350;2023-09-30T10:12:25;97358.31;;;16.10;100.00
596;BME280;19946;49.306;11.350;2023-09-30T10:18:26;97355.75;;;16.74;100.00
596;BME280;19946;49.306;11.350;2023-09-30T10:21:27;97362.56;;;16.48;100.00
596;BME280;19946;49.306;11.350;2023-09-30T10:24:28;97324.28;;;16.29;100.00
596;BME280;19946;49.306;11.350;2023-09-30T10:27:30;97371.19;;;16.31;100.00
596;BME280;19946;49.306;11.350;2023-09-30T10:30:37;97375.91;;;16.64;100.00
596;BME280;19946;49.306;11.350;2023-09-30T10:37:19;97385.38;;;16.56;100.00
596;BME280;19946;49.306;11.350;2023-09-30T10:40:27;97380.94;;;16.75;100.00
596;BME280;19946;49.306;11.350;2023-09-30T10:43:37;97393.38;;;16.54;100.00
596;BME280;19946;49.306;11.350;2023-09-30T10:46:38;97389.94;;;16.63;100.00
596;BME280;19946;49.306;11.350;2023-09-30T10:49:40;97367.38;;;16.62;100.00
596;BME280;19946;49.306;11.350;2023-09-30T10:52:40;97329.50;;;16.29;100.00
596;BME280;19946;49.306;11.350;2023-09-30T10:55:41;97385.38;;;16.56;100.00
596;BME280;19946;49.306;11.350;2023-09-30T10:58:47;97380.28;;;16.91;100.00
596;BME280;19946;49.306;11.350;2023-09-30T11:01:47;97377.41;;;17.12;100.00
596;BME280;19946;49.306;11.350;2023-09-30T11:04:48;97383.03;;;16.90;100.00
596;BME280;19946;49.306;11.350;2023-09-30T11:07:49;97353.72;;;16.59;100.00
596;BME280;19946;49.306;11.350;2023-09-30T11:10:52;97378.41;;;16.84;100.00
596;BME280;19946;49.306;11.350;2023-09-30T11:13:53;97322.34;;;16.59;100.00
596;BME280;19946;49.306;11.350;2023-09-30T11:16:55;97301.88;;;16.27;100.00
596;BME280;19946;49.306;11.350;2023-09-30T11:19:56;97367.81;;;16.48;100.00
596;BME280;19946;49.306;11.350;2023-09-30T11:22:56;97357.41;;;16.93;100.00
596;BME280;19946;49.306;11.350;2023-09-30T11:25:57;97346.66;;;17.14;100.00
596;BME280;19946;49.306;11.350;2023-09-30T11:29:11;97332.94;;;17.30;100.00
596;BME280;19946;49.306;11.350;2023-09-30T11:32:23;97341.59;;;17.12;100.00
596;BME280;19946;49.306;11.350;2023-09-30T11:35:23;97347.25;;;17.43;100.00
596;BME280;19946;49.306;11.350;2023-09-30T11:38:24;97342.03;;;17.43;100.00
596;BME280;19946;49.306;11.350;2023-09-30T11:41:35;97344.16;;;17.40;100.00
596;BME280;19946;49.306;11.350;2023-09-30T11:44:44;97345.72;;;17.15;100.00
596;BME280;19946;49.306;11.350;2023-09-30T11:47:47;97337.84;;;17.15;100.00
596;BME280;19946;49.306;11.350;2023-09-30T11:50:49;97333.22;;;17.27;100.00
596;BME280;19946;49.306;11.350;2023-09-30T11:53:50;97330.91;;;17.24;100.00
596;BME280;19946;49.306;11.350;2023-09-30T11:56:50;97324.91;;;17.67;100.00
596;BME280;19946;49.306;11.350;2023-09-30T11:59:51;97327.31;;;17.07;100.00
596;BME280;19946;49.306;11.350;2023-09-30T12:02:52;97343.59;;;17.54;100.00
596;BME280;19946;49.306;11.350;2023-09-30T12:05:54;97337.16;;;17.66;100.00
596;BME280;19946;49.306;11.350;2023-09-30T12:08:55;97331.25;;;17.82;100.00
596;BME280;19946;49.306;11.350;2023-09-30T12:11:56;97340.69;;;17.57;100.00
596;BME280;19946;49.306;11.350;2023-09-30T12:14:57;97347.94;;;17.45;100.00
596;BME280;19946;49.306;11.350;2023-09-30T12:17:58;97341.50;;;17.58;100.00
596;BME280;19946;49.306;11.350;2023-09-30T12:20:58;97344.06;;;17.14;100.00
596;BME280;19946;49.306;11.350;2023-09-30T12:24:02;97347.50;;;17.32;100.00
596;BME280;19946;49.306;11.350;2023-09-30T12:27:03;97340.06;;;17.81;100.00
596;BME280;19946;49.306;11.350;2023-09-30T12:30:05;97312.38;;;17.78;100.00
596;BME280;19946;49.306;11.350;2023-09-30T12:33:07;97326.59;;;17.76;100.00
596;BME280;19946;49.306;11.350;2023-09-30T12:36:08;97333.56;;;18.19;100.00
596;BME280;19946;49.306;11.350;2023-09-30T12:39:08;97319.56;;;18.02;100.00
596;BME280;19946;49.306;11.350;2023-09-30T12:42:12;97327.75;;;18.33;100.00
596;BME280;19946;49.306;11.350;2023-09-30T12:45:14;97311.56;;;18.38;100.00
596;BME280;19946;49.306;11.350;2023-09-30T12:48:14;97313.44;;;18.19;100.00
596;BME280;19946;49.306;11.350;2023-09-30T12:51:15;97315.19;;;18.11;100.00
596;BME280;19946;49.306;11.350;2023-09-30T12:54:15;97316.91;;;17.50;100.00
596;BME280;19946;49.306;11.350;2023-09-30T12:57:18;97308.75;;;17.36;100.00
596;BME280;19946;49.306;11.350;2023-09-30T13:00:19;97311.94;;;17.83;100.00
596;BME280;19946;49.306;11.350;2023-09-30T13:03:22;97319.84;;;18.17;100.00
596;BME280;19946;49.306;11.350;2023-09-30T13:06:22;97307.75;;;17.98;100.00
596;BME280;19946;49.306;11.350;2023-09-30T13:09:23;97255.63;;;17.43;100.00
596;BME280;19946;49.306;11.350;2023-09-30T13:12:23;97303.06;;;17.40;100.00
596;BME280;19946;49.306;11.350;2023-09-30T13:15:24;97308.47;;;17.39;100.00
596;BME280;19946;49.306;11.350;2023-09-30T13:18:26;97290.56;;;17.34;100.00
596;BME280;19946;49.306;11.350;2023-09-30T13:21:26;97305.84;;;17.39;100.00
596;BME280;19946;49.306;11.350;2023-09-30T13:24:26;97314.56;;;17.83;100.00
596;BME280;19946;49.306;11.350;2023-09-30T13:27:27;97291.53;;;17.33;100.00
596;BME280;19946;49.306;11.350;2023-09-30T13:30:28;97298.13;;;17.37;100.00
596;BME280;19946;49.306;11.350;2023-09-30T13:33:29;97287.13;;;17.34;100.00
596;BME280;19946;49.306;11.350;2023-09-30T13:36:29;97303.56;;;17.44;100.00
596;BME280;19946;49.306;11.350;2023-09-30T13:39:30;97294.59;;;17.64;100.00
596;BME280;19946;49.306;11.350;2023-09-30T13:42:31;97297.38;;;17.63;100.00
596;BME280;19946;49.306;11.350;2023-09-30T13:45:31;97293.09;;;17.62;100.00
596;BME280;19946;49.306;11.350;2023-09-30T13:48:33;97278.44;;;17.69;100.00
596;BME280;19946;49.306;11.350;2023-09-30T13:51:33;97274.97;;;17.68;100.00
596;BME280;19946;49.306;11.350;2023-09-30T13:54:34;97280.06;;;17.70;100.00
596;BME280;19946;49.306;11.350;2023-09-30T13:57:34;97276.19;;;17.56;100.00
596;BME280;19946;49.306;11.350;2023-09-30T14:00:35;97264.44;;;17.42;100.00
596;BME280;19946;49.306;11.350;2023-09-30T14:03:35;97277.47;;;17.52;100.00
596;BME280;19946;49.306;11.350;2023-09-30T14:06:36;97267.31;;;17.31;100.00
596;BME280;19946;49.306;11.350;2023-09-30T14:09:37;97281.75;;;17.35;100.00
596;BME280;19946;49.306;11.350;2023-09-30T14:12:38;97262.16;;;17.22;100.00
596;BME280;19946;49.306;11.350;2023-09-30T14:15:39;97243.25;;;17.10;100.00
596;BME280;19946;49.306;11.350;2023-09-30T14:18:40;97252.06;;;17.09;100.00
596;BME280;19946;49.306;11.350;2023-09-30T14:21:40;97287.66;;;17.37;100.00
596;BME280;19946;49.306;11.350;2023-09-30T14:24:41;97281.59;;;17.37;100.00
596;BME280;19946;49.306;11.350;2023-09-30T14:27:41;97272.56;;;17.13;100.00
596;BME280;19946;49.306;11.350;2023-09-30T14:30:42;97256.88;;;16.96;100.00
596;BME280;19946;49.306;11.350;2023-09-30T14:33:42;97281.09;;;17.15;100.00
596;BME280;19946;49.306;11.350;2023-09-30T14:36:42;97285.38;;;17.17;100.00
596;BME280;19946;49.306;11.350;2023-09-30T14:39:43;97287.91;;;17.08;100.00
596;BME280;19946;49.306;11.350;2023-09-30T14:42:43;97280.22;;;17.07;100.00
596;BME280;19946;49.306;11.350;2023-09-30T14:45:43;97272.50;;;16.88;100.00
596;BME280;19946;49.306;11.350;2023-09-30T14:48:43;97276.69;;;16.81;100.00
596;BME280;19946;49.306;11.350;2023-09-30T14:51:44;97270.34;;;16.65;100.00
596;BME280;19946;49.306;11.350;2023-09-30T14:54:48;97258.63;;;16.60;100.00
596;BME280;19946;49.306;11.350;2023-09-30T14:57:48;97260.16;;;16.62;100.00
596;BME280;19946;49.306;11.350;2023-09-30T15:00:48;97263.38;;;16.74;100.00
596;BME280;19946;49.306;11.350;2023-09-30T15:03:49;97274.66;;;16.92;100.00
596;BME280;19946;49.306;11.350;2023-09-30T15:06:49;97258.38;;;16.81;100.00
596;BME280;19946;49.306;11.350;2023-09-30T15:09:49;97270.72;;;16.61;100.00
596;BME280;19946;49.306;11.350;2023-09-30T15:12:51;97260.41;;;16.59;100.00
596;BME280;19946;49.306;11.350;2023-09-30T15:15:51;97256.94;;;16.41;100.00
596;BME280;19946;49.306;11.350;2023-09-30T15:18:52;97268.47;;;16.48;100.00
596;BME280;19946;49.306;11.350;2023-09-30T15:21:52;97270.84;;;16.41;100.00
596;BME280;19946;49.306;11.350;2023-09-30T15:24:53;97261.19;;;16.15;100.00
596;BME280;19946;49.306;11.350;2023-09-30T15:27:53;97254.66;;;16.01;100.00
596;BME280;19946;49.306;11.350;2023-09-30T15:30:54;97237.28;;;15.82;100.00
596;BME280;19946;49.306;11.350;2023-09-30T15:33:56;97263.50;;;15.90;100.00
596;BME280;19946;49.306;11.350;2023-09-30T15:36:57;97268.34;;;15.85;100.00
596;BME280;19946;49.306;11.350;2023-09-30T15:39:57;97259.47;;;15.59;100.00
596;BME280;19946;49.306;11.350;2023-09-30T15:42:58;97275.56;;;15.35;100.00
596;BME280;19946;49.306;11.350;2023-09-30T15:45:59;97280.78;;;15.25;100.00
596;BME280;19946;49.306;11.350;2023-09-30T15:49:00;97275.56;;;15.06;100.00
596;BME280;19946;49.306;11.350;2023-09-30T15:52:03;97230.41;;;14.77;100.00
596;BME280;19946;49.306;11.350;2023-09-30T15:55:04;97276.41;;;14.97;100.00
596;BME280;19946;49.306;11.350;2023-09-30T15:58:05;97277.91;;;14.90;100.00
596;BME280;19946;49.306;11.350;2023-09-30T16:01:06;97285.03;;;14.88;100.00
596;BME280;19946;49.306;11.350;2023-09-30T16:04:10;97271.31;;;14.67;100.00
596;BME280;19946;49.306;11.350;2023-09-30T16:07:12;97272.00;;;14.69;100.00